createdAt,value
2022-08-17T00:00:34.312Z,100924.34
2022-08-17T00:05:41.143Z,100924.59
2022-08-17T00:10:47.617Z,100925.44
2022-08-17T00:15:49.580Z,100928.53
2022-08-17T00:20:51.667Z,100921.13
2022-08-17T00:25:53.855Z,100908.31
2022-08-17T00:35:59.158Z,100909.66
2022-08-17T00:41:08.269Z,100905.75
2022-08-17T00:46:24.101Z,100899.81
2022-08-17T00:51:50.665Z,100889.13
2022-08-17T00:56:57.767Z,100895.63
2022-08-17T01:02:00.665Z,100879.16
2022-08-17T01:07:04.525Z,100883.81
2022-08-17T01:12:09.246Z,100869.81
2022-08-17T01:17:11.407Z,100862.19
2022-08-17T01:22:12.950Z,100873.00
2022-08-17T01:27:16.492Z,100876.00
2022-08-17T01:32:20.540Z,100882.38
2022-08-17T01:37:30.689Z,100892.47
2022-08-17T01:42:41.995Z,100890.50
2022-08-17T01:47:43.865Z,100890.25
2022-08-17T01:52:52.247Z,100884.19
2022-08-17T01:57:53.987Z,100894.28
2022-08-17T02:02:55.741Z,100898.22
2022-08-17T02:08:00.522Z,100888.44
2022-08-17T02:13:04.333Z,100887.47
2022-08-17T02:18:07.714Z,100881.25
2022-08-17T02:23:12.106Z,100902.31
2022-08-17T02:28:13.728Z,100986.13
2022-08-17T02:33:15.523Z,100996.94
2022-08-17T02:38:17.528Z,101015.03
2022-08-17T02:43:19.251Z,101008.22
2022-08-17T02:48:30.450Z,101014.81
2022-08-17T02:53:35.659Z,101030.97
2022-08-17T02:58:38.126Z,101022.22
2022-08-17T03:03:40.379Z,101029.13
2022-08-17T03:08:42.006Z,101029.41
2022-08-17T03:13:43.639Z,101041.09
2022-08-17T03:18:45.317Z,101014.84
2022-08-17T03:23:47.073Z,100976.44
2022-08-17T03:28:56.165Z,100967.84
2022-08-17T03:33:58.024Z,100962.59
2022-08-17T03:39:00.603Z,100989.13
2022-08-17T03:44:02.536Z,101012.75
2022-08-17T03:49:24.765Z,100984.25
2022-08-17T03:54:44.997Z,100975.56
2022-08-17T03:59:47.613Z,100971.66
2022-08-17T04:04:52.895Z,100972.19
2022-08-17T04:09:54.506Z,100949.84
2022-08-17T04:14:56.758Z,100948.56
2022-08-17T04:19:58.448Z,100946.16
2022-08-17T04:25:01.761Z,100931.34
2022-08-17T04:30:07.061Z,100940.59
2022-08-17T04:35:09.286Z,100931.34
2022-08-17T04:40:30.426Z,100933.50
2022-08-17T04:45:32.596Z,100936.31
2022-08-17T04:50:36.929Z,100941.56
2022-08-17T04:55:42.403Z,100935.59
2022-08-17T05:01:10.948Z,100939.59
2022-08-17T05:06:12.642Z,100926.81
2022-08-17T05:11:14.885Z,100922.13
2022-08-17T05:16:18.088Z,100941.56
2022-08-17T05:21:23.150Z,100951.38
2022-08-17T05:26:31.914Z,100950.56
2022-08-17T05:31:38.479Z,100958.44
2022-08-17T05:36:42.950Z,100946.81
2022-08-17T05:41:47.882Z,100937.81
2022-08-17T05:47:02.939Z,100933.75
2022-08-17T05:52:33.699Z,100944.75
2022-08-17T05:57:39.484Z,100948.44
2022-08-17T06:02:54.781Z,100960.25
2022-08-17T06:08:12.215Z,100963.47
2022-08-17T06:13:42.548Z,100971.03
2022-08-17T06:18:59.568Z,100970.56
2022-08-17T06:24:21.747Z,100959.63
2022-08-17T06:29:49.028Z,100968.38
2022-08-17T06:34:52.202Z,100989.31
2022-08-17T06:40:22.162Z,100996.84
2022-08-17T06:45:31.137Z,101022.72
2022-08-17T06:50:53.569Z,101045.56
2022-08-17T06:56:09.959Z,101007.66
2022-08-17T07:01:20.792Z,101010.94
2022-08-17T07:06:27.816Z,101003.53
2022-08-17T07:11:49.032Z,100987.97
2022-08-17T07:16:54.992Z,100992.47
2022-08-17T07:22:50.591Z,100978.97
2022-08-17T07:28:06.870Z,100985.19
2022-08-17T07:33:13.604Z,100989.19
2022-08-17T07:38:28.096Z,100996.84
2022-08-17T07:43:52.442Z,100992.22
2022-08-17T07:48:57.101Z,100993.22
2022-08-17T07:54:13.990Z,100999.03
2022-08-17T07:59:23.675Z,101012.09
2022-08-17T08:10:27.939Z,100997.97
2022-08-17T08:15:37.361Z,101004.88
2022-08-17T08:20:57.796Z,101016.09
2022-08-17T08:26:18.382Z,101024.16
2022-08-17T08:31:42.511Z,101021.88
2022-08-17T08:37:12.856Z,101035.84
2022-08-17T08:42:48.986Z,101058.13
2022-08-17T08:47:53.919Z,101066.22
2022-08-17T08:53:11.619Z,101065.84
2022-08-17T08:58:31.789Z,101073.19
2022-08-17T09:03:53.203Z,101067.63
2022-08-17T09:09:04.652Z,101055.50
2022-08-17T09:14:21.811Z,101062.19
2022-08-17T09:19:44.856Z,101049.38
2022-08-17T09:24:57.192Z,101053.41
2022-08-17T09:30:02.576Z,101049.28
2022-08-17T09:35:15.397Z,101055.81
2022-08-17T09:40:32.644Z,101063.41
2022-08-17T09:45:50.759Z,101070.34
2022-08-17T09:51:07.020Z,101070.97
2022-08-17T09:56:24.196Z,101070.25
2022-08-17T10:01:52.577Z,101081.81
2022-08-17T10:07:43.032Z,101080.47
2022-08-17T10:12:59.470Z,101089.56
2022-08-17T10:18:23.867Z,101092.88
2022-08-17T10:23:52.508Z,101096.41
2022-08-17T10:29:00.536Z,101112.00
2022-08-17T10:34:41.388Z,101127.31
2022-08-17T10:40:09.937Z,101136.53
2022-08-17T10:45:20.113Z,101135.56
2022-08-17T10:50:49.604Z,101119.28
2022-08-17T10:56:19.480Z,101093.13
2022-08-17T11:01:37.921Z,101091.31
2022-08-17T11:06:41.961Z,101097.75
2022-08-17T11:11:56.487Z,101096.44
2022-08-17T11:17:49.743Z,101090.34
2022-08-17T11:23:10.140Z,101109.22
2022-08-17T11:28:23.616Z,101116.00
2022-08-17T11:33:34.236Z,101107.72
2022-08-17T11:38:57.922Z,101101.91
2022-08-17T11:44:21.946Z,101107.25
2022-08-17T11:50:08.059Z,101096.28
2022-08-17T11:55:36.309Z,101091.19
2022-08-17T12:00:40.061Z,101090.34
2022-08-17T12:05:43.392Z,101106.59
2022-08-17T12:11:03.474Z,101119.97
2022-08-17T12:16:05.455Z,101131.66
2022-08-17T12:21:13.649Z,101141.09
2022-08-17T12:26:19.906Z,101146.09
2022-08-17T12:31:45.945Z,101146.00
2022-08-17T12:36:51.197Z,101152.13
2022-08-17T12:42:01.533Z,101152.06
2022-08-17T12:47:19.352Z,101145.13
2022-08-17T12:52:25.319Z,101130.66
2022-08-17T12:57:33.226Z,101131.75
2022-08-17T13:02:42.904Z,101118.00
2022-08-17T13:07:46.642Z,101109.41
2022-08-17T13:12:51.043Z,101115.91
2022-08-17T13:17:59.340Z,101109.81
2022-08-17T13:23:11.579Z,101099.63
2022-08-17T13:28:35.800Z,101093.47
2022-08-17T13:33:44.793Z,101088.94
2022-08-17T13:38:49.780Z,101082.06
2022-08-17T13:43:51.347Z,101084.59
2022-08-17T13:49:09.986Z,101082.31
2022-08-17T13:54:37.753Z,101076.06
2022-08-17T13:59:54.707Z,101077.41
2022-08-17T14:04:58.408Z,101076.53
2022-08-17T14:10:12.584Z,101071.84
2022-08-17T14:15:16.316Z,101070.97
2022-08-17T14:20:21.231Z,101065.34
2022-08-17T14:25:27.044Z,101067.91
2022-08-17T14:48:07.594Z,101055.91
2022-08-17T14:53:13.707Z,101061.34
2022-08-17T14:58:42.563Z,101071.47
2022-08-17T15:03:44.314Z,101074.03
2022-08-17T15:08:46.182Z,101064.66
2022-08-17T15:13:52.462Z,101070.59
2022-08-17T15:18:55.032Z,101063.19
2022-08-17T15:23:57.308Z,101062.25
2022-08-17T15:28:58.887Z,101060.19
2022-08-17T15:40:47.700Z,101066.25
2022-08-17T15:46:17.524Z,101071.38
2022-08-17T15:51:28.577Z,101073.06
2022-08-17T15:56:31.679Z,101080.00
2022-08-17T16:03:01.055Z,101075.75
2022-08-17T16:06:55.741Z,101081.81
2022-08-17T16:11:57.564Z,101082.56
2022-08-17T16:16:59.417Z,101080.72
2022-08-17T16:22:01.822Z,101080.00
2022-08-17T16:27:04.182Z,101070.03
2022-08-17T16:32:21.824Z,101070.50
2022-08-17T16:43:00.228Z,101068.78
2022-08-17T16:48:02.493Z,101074.75
2022-08-17T16:53:17.136Z,101081.34
2022-08-17T16:58:19.149Z,101075.63
2022-08-17T17:03:24.931Z,101088.69
2022-08-17T17:08:31.419Z,101100.22
2022-08-17T17:13:43.850Z,101103.34
2022-08-17T17:19:10.585Z,101100.31
2022-08-17T17:24:36.875Z,101095.56
2022-08-17T17:29:50.390Z,101098.72
2022-08-17T17:35:00.977Z,101093.03
2022-08-17T17:40:13.531Z,101091.91
2022-08-17T17:45:31.984Z,101099.22
2022-08-17T17:50:37.939Z,101102.75
2022-08-17T17:56:01.667Z,101108.69
2022-08-17T18:01:23.967Z,101118.19
2022-08-17T18:06:36.278Z,101121.59
2022-08-17T18:11:59.107Z,101126.44
2022-08-17T18:17:02.207Z,101124.59
2022-08-17T18:22:24.435Z,101137.25
2022-08-17T18:27:40.227Z,101141.75
2022-08-17T18:32:46.510Z,101144.94
2022-08-17T18:37:54.184Z,101139.09
2022-08-17T18:43:03.995Z,101144.19
2022-08-17T18:48:17.907Z,101150.28
2022-08-17T18:53:38.714Z,101144.53
2022-08-17T18:58:40.549Z,101148.91
2022-08-17T19:03:43.380Z,101163.13
2022-08-17T19:08:45.044Z,101160.81
2022-08-17T19:13:54.688Z,101164.34
2022-08-17T19:19:02.917Z,101171.00
2022-08-17T19:24:21.948Z,101159.84
2022-08-17T19:29:53.793Z,101167.50
2022-08-17T19:34:56.853Z,101175.88
2022-08-17T19:40:51.759Z,101176.94
2022-08-17T19:46:07.942Z,101180.09
2022-08-17T19:51:18.213Z,101178.34
2022-08-17T19:56:35.133Z,101184.56
2022-08-17T20:01:49.236Z,101190.44
2022-08-17T20:06:51.989Z,101193.25
2022-08-17T20:12:05.386Z,101176.75
2022-08-17T20:17:07.236Z,101171.84
2022-08-17T20:22:21.190Z,101172.94
2022-08-17T20:27:34.465Z,101169.16
2022-08-17T20:32:48.311Z,101169.88
2022-08-17T20:37:58.761Z,101172.03
2022-08-17T20:43:35.578Z,101173.06
2022-08-17T20:48:42.710Z,101180.94
2022-08-17T20:53:47.184Z,101184.22
2022-08-17T20:58:48.900Z,101188.59
2022-08-17T21:03:51.835Z,101192.53
2022-08-17T21:09:18.035Z,101202.81
2022-08-17T21:14:32.701Z,101200.47
2022-08-17T21:20:00.531Z,101186.72
2022-08-17T21:25:12.113Z,101191.69
2022-08-17T21:30:23.414Z,101186.97
2022-08-17T21:35:30.064Z,101184.19
2022-08-17T21:40:33.807Z,101206.13
2022-08-17T21:45:40.311Z,101203.97
2022-08-17T21:50:46.158Z,101207.91
2022-08-17T21:55:49.087Z,101204.50
2022-08-17T22:01:20.611Z,101212.88
2022-08-17T22:06:43.193Z,101216.06
2022-08-17T22:12:21.981Z,101233.22
2022-08-17T22:17:28.191Z,101232.72
2022-08-17T22:22:35.014Z,101234.91
2022-08-17T22:28:01.272Z,101239.88
2022-08-17T22:33:31.506Z,101243.28
2022-08-17T22:38:33.203Z,101249.34
2022-08-17T22:43:38.515Z,101248.25
2022-08-17T22:48:49.251Z,101242.03
2022-08-17T22:54:21.951Z,101232.59
2022-08-17T22:59:54.429Z,101236.63
2022-08-17T23:05:10.736Z,101236.75
2022-08-17T23:10:13.751Z,101238.53
2022-08-17T23:15:19.174Z,101240.34
2022-08-17T23:20:20.894Z,101237.06
2022-08-17T23:25:28.220Z,101227.38
2022-08-17T23:30:33.665Z,101227.22
2022-08-17T23:35:39.011Z,101228.31
2022-08-17T23:40:42.534Z,101213.94
2022-08-17T23:45:44.123Z,101208.34
2022-08-17T23:50:45.772Z,101219.94
2022-08-17T23:55:47.647Z,101223.34
